Home > Products > Valid Products > TAF

000
FTUS43 KGID 201120
TAFGRI
TAF
KGRI 201120Z 2012/2112 18010KT P6SM SCT200
     FM201700 17014G22KT P6SM SCT150
     FM210100 16010KT P6SM VCTS SCT050CB BKN100
     FM210800 20010KT P6SM BKN080=



000
FTUS43 KGID 201120
TAFGRI
TAF
KGRI 201120Z 2012/2112 18010KT P6SM SCT200
     FM201700 17014G22KT P6SM SCT150
     FM210100 16010KT P6SM VCTS SCT050CB BKN100
     FM210800 20010KT P6SM BKN080=



000
FTUS43 KGID 200530
TAFGRI
TAF
KGRI 200530Z 2006/2106 12008KT P6SM FEW200 WS010/22036KT
     FM201300 16010KT P6SM FEW200
     FM201700 17014G22KT P6SM SCT150
     FM210100 16010KT P6SM BKN100=



000
FTUS43 KGID 200530
TAFGRI
TAF
KGRI 200530Z 2006/2106 12008KT P6SM FEW200 WS010/22036KT
     FM201300 16010KT P6SM FEW200
     FM201700 17014G22KT P6SM SCT150
     FM210100 16010KT P6SM BKN100=



000
FTUS43 KGID 192336
TAFGRI
TAF
KGRI 192336Z 2000/2024 12009KT P6SM FEW250
     FM200600 12009KT P6SM FEW200 WS010/22036KT
     FM201300 16010KT P6SM FEW200
     FM201700 17015KT P6SM SCT150=



000
FTUS43 KGID 192336
TAFGRI
TAF
KGRI 192336Z 2000/2024 12009KT P6SM FEW250
     FM200600 12009KT P6SM FEW200 WS010/22036KT
     FM201300 16010KT P6SM FEW200
     FM201700 17015KT P6SM SCT150=



000
FTUS43 KGID 191720
TAFGRI
TAF
KGRI 191720Z 1918/2018 13008KT P6SM SCT200
     FM200700 18009KT P6SM SCT200 WS015/22036KT
     FM201100 16010KT P6SM SCT200
     FM201600 17013KT P6SM SCT150=



000
FTUS43 KGID 191720
TAFGRI
TAF
KGRI 191720Z 1918/2018 13008KT P6SM SCT200
     FM200700 18009KT P6SM SCT200 WS015/22036KT
     FM201100 16010KT P6SM SCT200
     FM201600 17013KT P6SM SCT150=



000
FTUS43 KGID 191120
TAFGRI
TAF
KGRI 191120Z 1912/2012 VRB03KT P6SM SCT250
     FM191800 13010KT P6SM SCT250=



000
FTUS43 KGID 191120
TAFGRI
TAF
KGRI 191120Z 1912/2012 VRB03KT P6SM SCT250
     FM191800 13010KT P6SM SCT250=



000
FTUS43 KGID 190530
TAFGRI
TAF
KGRI 190530Z 1906/2006 VRB03KT P6SM SKC
     FM191800 13010KT P6SM SKC=



000
FTUS43 KGID 190530
TAFGRI
TAF
KGRI 190530Z 1906/2006 VRB03KT P6SM SKC
     FM191800 13010KT P6SM SKC=



000
FTUS43 KGID 182339
TAFGRI
TAF
KGRI 182339Z 1900/1924 VRB03KT P6SM SKC
     FM191800 13011KT P6SM SKC=



000
FTUS43 KGID 182339
TAFGRI
TAF
KGRI 182339Z 1900/1924 VRB03KT P6SM SKC
     FM191800 13011KT P6SM SKC=



000
FTUS43 KGID 181737
TAFGRI
TAF
KGRI 181737Z 1818/1918 VRB03KT P6SM SKC=



000
FTUS43 KGID 181737
TAFGRI
TAF
KGRI 181737Z 1818/1918 VRB03KT P6SM SKC=



000
FTUS43 KGID 181120
TAFGRI
TAF
KGRI 181120Z 1812/1912 VRB05KT P6SM SKC
     FM181300 35008KT P6SM SCT250=



000
FTUS43 KGID 181120
TAFGRI
TAF
KGRI 181120Z 1812/1912 VRB05KT P6SM SKC
     FM181300 35008KT P6SM SCT250=



000
FTUS43 KGID 180538
TAFGRI
TAF
KGRI 180538Z 1806/1906 15008KT P6SM SCT120 BKN250
     FM181300 35008KT P6SM SCT250=



000
FTUS43 KGID 180538
TAFGRI
TAF
KGRI 180538Z 1806/1906 15008KT P6SM SCT120 BKN250
     FM181300 35008KT P6SM SCT250=



000
FTUS43 KGID 180305 AAB
TAFGRI
TAF AMD
KGRI 180305Z 1803/1824 16008KT P6SM BKN200
     FM181300 35009KT P6SM SKC=



000
FTUS43 KGID 180305 AAB
TAFGRI
TAF AMD
KGRI 180305Z 1803/1824 16008KT P6SM BKN200
     FM181300 35009KT P6SM SKC=



000
FTUS43 KGID 180048 AAA
TAFGRI
TAF AMD
KGRI 180048Z 1801/1824 13005KT P6SM BKN200
     FM180130 VRB25G40KT 3/4SM +TSRA SCT015 BKN025CB
     FM180230 33020G30KT 4SM TSRA SCT015CB BKN100
     FM180300 16008KT P6SM BKN100
     FM181300 35009KT P6SM SKC=



000
FTUS43 KGID 180048 AAA
TAFGRI
TAF AMD
KGRI 180048Z 1801/1824 13005KT P6SM BKN200
     FM180130 VRB25G40KT 3/4SM +TSRA SCT015 BKN025CB
     FM180230 33020G30KT 4SM TSRA SCT015CB BKN100
     FM180300 16008KT P6SM BKN100
     FM181300 35009KT P6SM SKC=



000
FTUS43 KGID 172320
TAFGRI
TAF
KGRI 172320Z 1800/1824 14006KT P6SM BKN200
     FM180200 14006KT P6SM VCTS SCT025 BKN050CB
     FM180600 16008KT P6SM BKN100
     FM181300 35009KT P6SM SKC=



000
FTUS43 KGID 172320
TAFGRI
TAF
KGRI 172320Z 1800/1824 14006KT P6SM BKN200
     FM180200 14006KT P6SM VCTS SCT025 BKN050CB
     FM180600 16008KT P6SM BKN100
     FM181300 35009KT P6SM SKC=



000
FTUS43 KGID 171739
TAFGRI
TAF
KGRI 171739Z 1718/1818 14005KT P6SM SKC
     FM180300 16012KT P6SM VCTS BKN080CB
     FM180900 VRB06KT P6SM FEW250
     FM181600 36008KT P6SM SKC=



000
FTUS43 KGID 171739
TAFGRI
TAF
KGRI 171739Z 1718/1818 14005KT P6SM SKC
     FM180300 16012KT P6SM VCTS BKN080CB
     FM180900 VRB06KT P6SM FEW250
     FM181600 36008KT P6SM SKC=



    US Dept of Commerce
    National Oceanic and Atmospheric Administration
    National Weather Service
    1325 East West Highway
    Silver Spring, MD 20910
    Page Author: NWS Internet Services Team
Disclaimer
Information Quality
Credits
Glossary
Privacy Policy
Freedom of Information Act (FOIA)
About Us
Career Opportunities